Latest Weather Observations for Eildon Fire Tower

IDV60801

Issued at 4:05 pm EST Saturday 30 August 2014 (issued every 30 minutes, with the page automatically refreshed every 10 minutes)

About weather observations | Map of weather stations | Latest weather observations for VIC | Other Formats
Station Details ID: 088164 Name: EILDON FIRE TOWER Lat: -37.21 Lon: 145.84 Height: 637.0 m
Data from the previous 72 hours. | See also: Recent months at Eildon Fire Tower
Date/Time
EST
Temp
°C
App
Temp
°C
Dew
Point
Rel
Hum
%
Delta-T
°C
Wind Press
QNH
hPa
Press
MSL
hPa
Rain
since 9 am
mm
Dir
 
Spd
km/h
Gust
km/h
Spd
kts
Gust
kts
30/04:00pm 15.4 13.9 9.3 67 3.2 W 7 11 4 6 - - 0.0
30/03:30pm 15.3 13.8 9.2 67 3.2 W 7 13 4 7 - - 0.0
30/03:00pm 15.2 13.7 10.4 73 2.6 W 9 17 5 9 - - 0.0
30/02:30pm 14.8 12.5 9.0 68 3.1 W 11 19 6 10 - - 0.0
30/02:00pm 14.3 12.0 8.9 70 2.8 W 11 15 6 8 - - 0.0
30/01:30pm 14.2 11.6 9.2 72 2.6 W 13 17 7 9 - - 0.0
30/01:00pm 14.9 13.3 7.9 63 3.6 WSW 6 13 3 7 - - 0.0
30/12:30pm 16.1 14.5 7.8 58 4.3 ENE 6 9 3 5 - - 0.0
30/12:00pm 15.9 14.6 7.7 58 4.2 E 4 9 2 5 - - 0.0
30/11:30am 14.5 12.7 5.3 54 4.5 NNE 4 7 2 4 - - 0.0
30/11:00am 14.3 12.9 7.4 63 3.5 NNE 4 7 2 4 - - 0.0
30/10:30am 13.3 12.2 8.6 73 2.4 NE 4 6 2 3 - - 0.0
30/10:00am 12.6 10.5 4.1 56 4.0 ESE 4 6 2 3 - - 0.0
30/09:30am 11.3 8.8 4.5 63 3.2 E 7 9 4 5 - - 0.0
30/09:00am 10.7 7.8 4.8 67 2.8 E 9 11 5 6 - - 0.0
30/08:30am 10.6 7.3 4.3 65 2.9 E 11 13 6 7 - - 0.0
30/08:00am 9.9 6.9 3.9 66 2.7 E 9 11 5 6 - - 0.0
30/07:30am 8.5 4.7 3.8 72 2.1 E 13 19 7 10 - - 0.0
30/07:00am 7.6 2.9 3.3 74 1.9 ESE 17 19 9 10 - - 0.0
30/06:30am 6.8 2.2 3.8 81 1.3 E 17 22 9 12 - - 0.0
30/06:00am 7.6 3.0 3.8 77 1.7 E 17 20 9 11 - - 0.0
30/05:30am 6.5 3.5 5.9 96 0.3 ENE 11 15 6 8 - - 0.0
30/05:00am 6.9 2.9 4.7 86 1.0 E 15 19 8 10 - - 0.0
30/04:30am 7.3 2.5 4.6 83 1.2 E 19 22 10 12 - - 0.0
30/04:00am 7.7 3.4 5.2 84 1.2 E 17 20 9 11 - - 0.0
30/03:30am 7.9 3.2 5.2 83 1.2 E 19 20 10 11 - - 0.0
30/03:00am 7.3 2.7 5.4 88 0.9 E 19 20 10 11 - - 0.0
30/02:30am 8.1 3.9 5.6 84 1.2 ESE 17 24 9 13 - - 0.0
30/02:00am 7.9 3.7 5.7 86 1.0 ESE 17 24 9 13 - - 0.0
30/01:30am 7.8 4.0 5.9 88 0.9 ESE 15 20 8 11 - - 0.0
30/01:00am 8.1 5.1 5.9 86 1.0 ESE 11 15 6 8 - - 0.0
30/12:30am 8.3 4.5 5.9 85 1.1 E 15 19 8 10 - - 0.0
30/12:00am 8.8 4.3 6.3 84 1.2 ESE 19 26 10 14 - - 0.0
 
Date/Time
EST
Temp
°C
App
Temp
°C
Dew
Point
Rel
Hum
%
Delta-T
°C
Wind Press
QNH
hPa
Press
MSL
hPa
Rain
since 9 am
mm
Dir
 
Spd
km/h
Gust
km/h
Spd
kts
Gust
kts
29/11:30pm 8.8 4.7 6.3 84 1.2 ESE 17 24 9 13 - - 0.0
29/11:00pm 8.9 4.4 6.2 83 1.3 ESE 19 28 10 15 - - 0.0
29/10:30pm 9.1 4.1 6.4 83 1.3 ESE 22 32 12 17 - - 0.0
29/10:00pm 9.3 4.7 6.7 84 1.3 ESE 20 28 11 15 - - 0.0
29/09:30pm 9.2 5.7 7.2 87 1.0 SE 15 22 8 12 - - 0.0
29/09:00pm 9.6 6.2 7.7 88 0.9 E 15 19 8 10 - - 0.0
29/08:30pm 9.7 7.1 7.8 88 0.9 ESE 11 17 6 9 - - 0.0
29/08:00pm 8.7 7.4 7.6 93 0.5 SW 4 9 2 5 - - 0.0
29/07:30pm 9.3 7.4 7.7 90 0.8 W 7 13 4 7 - - 0.0
29/07:00pm 9.4 5.3 8.0 91 0.7 W 19 24 10 13 - - 0.0
29/06:30pm 9.8 5.2 8.1 89 0.9 WSW 22 28 12 15 - - 0.0
29/06:00pm 10.5 5.6 8.3 86 1.1 WSW 24 30 13 16 - - 0.0
29/05:30pm 11.6 6.9 7.9 78 1.9 W 22 26 12 14 - - 0.0
29/05:00pm 13.1 8.9 7.3 68 2.9 W 19 22 10 12 - - 0.0
29/04:30pm 14.0 10.2 7.5 65 3.3 W 17 20 9 11 - - 0.0
29/04:00pm 14.6 11.3 7.9 64 3.5 W 15 22 8 12 - - 0.0
29/03:30pm 14.8 11.6 6.9 59 4.0 W 13 19 7 10 - - 0.0
29/03:00pm 14.8 11.6 6.9 59 4.0 W 13 17 7 9 - - 0.0
29/02:30pm 14.5 11.3 5.0 53 4.6 W 11 15 6 8 - - 0.0
29/02:00pm 14.4 11.3 7.2 62 3.7 W 13 19 7 10 - - 0.0
29/01:30pm 13.7 11.1 7.7 67 3.1 W 11 15 6 8 - - 0.0
29/01:00pm 13.6 11.0 7.6 67 3.1 W 11 15 6 8 - - 0.0
29/12:30pm 13.6 11.9 7.6 67 3.1 W 6 9 3 5 - - 0.0
29/12:00pm 12.7 10.8 6.7 67 3.0 WSW 6 9 3 5 - - 0.0
29/11:30am 12.0 9.7 7.3 73 2.4 WSW 9 11 5 6 - - 0.0
29/11:00am 11.9 10.4 7.0 72 2.4 W 4 7 2 4 - - 0.0
29/10:30am 11.4 9.8 6.3 71 2.5 W 4 7 2 4 - - 0.0
29/10:00am 10.3 8.1 5.3 71 2.4 W 6 7 3 4 - - 0.0
29/09:30am 10.3 8.0 4.9 69 2.5 WSW 6 7 3 4 - - 0.0
29/09:00am 9.3 7.3 4.5 72 2.2 SW 4 6 2 3 - - 0.0
29/08:30am 8.7 6.8 4.7 76 1.8 SSW 4 7 2 4 - - 0.0
29/08:00am 10.0 7.6 5.4 73 2.2 ESE 7 9 4 5 - - 0.0
29/07:30am 9.2 6.1 5.4 77 1.8 E 11 13 6 7 - - 0.0
29/07:00am 8.3 4.5 4.1 75 1.9 E 13 15 7 8 - - 0.0
29/06:30am 7.6 3.4 3.6 76 1.8 ESE 15 17 8 9 - - 0.0
29/06:00am 8.3 5.1 2.8 68 2.4 E 9 11 5 6 - - 0.0
29/05:30am 9.0 7.2 3.2 67 2.6 S 2 4 1 2 - - 0.0
29/05:00am 8.6 6.4 3.2 69 2.4 SSW 4 6 2 3 - - 0.0
29/04:30am 8.2 6.0 3.3 71 2.2 SSE 4 6 2 3 - - 0.0
29/04:00am 8.5 5.8 2.7 67 2.5 SSE 6 7 3 4 - - 0.0
29/03:30am 8.5 6.4 3.8 72 2.1 SSE 4 6 2 3 - - 0.0
29/03:00am 8.9 6.7 3.5 69 2.4 SSE 4 4 2 2 - - 0.0
29/02:30am 9.6 7.9 4.2 69 2.5 SSE 2 4 1 2 - - 0.0
29/02:00am 9.7 7.4 4.9 72 2.2 SSE 6 6 3 3 - - 0.0
29/01:30am 9.1 7.2 4.7 74 2.0 SSW 4 6 2 3 - - 0.0
29/01:00am 9.6 7.6 4.6 71 2.3 S 4 4 2 2 - - 0.0
29/12:30am 9.7 8.2 4.9 72 2.2 SSW 2 6 1 3 - - 0.0
29/12:00am 9.8 8.3 5.0 72 2.2 WSW 2 4 1 2 - - 0.0
 
Date/Time
EST
Temp
°C
App
Temp
°C
Dew
Point
Rel
Hum
%
Delta-T
°C
Wind Press
QNH
hPa
Press
MSL
hPa
Rain
since 9 am
mm
Dir
 
Spd
km/h
Gust
km/h
Spd
kts
Gust
kts
28/11:30pm 9.9 7.6 4.9 71 2.3 WSW 6 7 3 4 - - 0.0
28/11:00pm 10.5 9.0 5.1 69 2.5 SW 2 4 1 2 - - 0.0
28/10:30pm 10.9 9.7 4.8 66 2.9 CALM 0 0 0 0 - - 0.0
28/10:00pm 11.3 9.8 5.0 65 3.0 S 2 2 1 1 - - 0.0
28/09:30pm 10.9 9.0 5.0 67 2.8 WSW 4 7 2 4 - - 0.0
28/09:00pm 11.4 9.8 4.6 63 3.2 WSW 2 4 1 2 - - 0.0
28/08:30pm 11.3 8.8 4.5 63 3.2 WSW 7 9 4 5 - - 0.0
28/08:00pm 11.5 9.5 4.3 61 3.4 WSW 4 6 2 3 - - 0.0
28/07:30pm 11.1 7.8 4.3 63 3.2 WSW 11 15 6 8 - - 0.0
28/07:00pm 11.8 8.1 4.5 61 3.4 W 13 17 7 9 - - 0.0
28/06:30pm 11.9 8.2 4.4 60 3.5 W 13 19 7 10 - - 0.0
28/06:00pm 12.3 7.8 4.3 58 3.8 W 17 20 9 11 - - 0.0
28/05:30pm 13.1 9.3 6.0 62 3.5 W 15 17 8 9 - - 0.0
28/05:00pm 14.1 10.5 5.2 55 4.3 W 13 17 7 9 - - 0.0
28/04:30pm 14.6 10.7 5.4 54 4.5 W 15 17 8 9 - - 0.0
28/04:00pm 14.9 11.0 7.2 60 3.9 W 17 24 9 13 - - 0.0
28/03:30pm 14.9 11.0 5.4 53 4.7 W 15 19 8 10 - - 0.0
28/03:00pm 15.2 11.1 4.3 48 5.2 W 15 17 8 9 - - 0.0
28/02:30pm 15.0 11.5 3.5 46 5.4 W 11 17 6 9 - - 0.0
28/02:00pm 15.2 12.7 4.6 49 5.1 W 7 11 4 6 - - 0.0
28/01:30pm 15.6 13.4 3.1 43 5.9 W 4 6 2 3 - - 0.0
28/01:00pm 15.4 13.6 5.6 52 4.8 NNE 4 7 2 4 - - 0.0
28/12:30pm 14.4 12.8 6.5 59 4.0 WNW 4 6 2 3 - - 0.0
28/12:00pm 13.9 12.5 7.4 65 3.3 W 4 7 2 4 - - 0.0
28/11:30am 14.2 13.0 7.9 66 3.2 NE 4 7 2 4 - - 0.0
28/11:00am 12.9 11.4 6.9 67 3.0 SSE 4 6 2 3 - - 0.0
28/10:30am 11.5 10.2 5.8 68 2.8 N 2 6 1 3 - - 0.0
28/10:00am 10.6 8.4 3.4 61 3.3 N 4 7 2 4 - - 0.0
28/09:30am 9.0 6.0 0.7 56 3.5 NNE 6 7 3 4 - - 0.0
28/09:00am 9.3 7.0 2.6 63 3.0 N 4 7 2 4 - - 0.0
28/08:30am 8.8 6.3 3.8 71 2.3 NNE 6 6 3 3 - - 0.0
28/08:00am 8.5 5.9 4.3 75 1.9 NNE 7 9 4 5 - - 0.0
28/07:30am 8.0 5.4 4.0 76 1.8 NNE 7 7 4 4 - - 0.0
28/07:00am 7.7 5.6 3.7 76 1.8 NNE 4 6 2 3 - - 0.0
28/06:30am 7.0 4.4 4.1 82 1.3 NE 7 9 4 5 - - 0.0
28/06:00am 5.0 2.0 4.1 94 0.4 NE 9 13 5 7 - - 0.0
28/05:30am 5.5 2.7 3.0 84 1.1 ENE 7 9 4 5 - - 0.0
28/05:00am 6.5 3.3 1.0 68 2.3 E 7 9 4 5 - - 0.0
28/04:30am 7.0 4.1 1.7 69 2.2 ESE 6 7 3 4 - - 0.0
28/04:00am 7.2 4.6 3.1 75 1.8 ESE 6 7 3 4 - - 0.0
28/03:30am 7.7 5.9 3.2 73 2.0 SE 2 6 1 3 - - 0.0
28/03:00am 7.9 5.4 3.6 74 1.9 ESE 6 7 3 4 - - 0.0
28/02:30am 8.1 6.0 4.1 76 1.8 ESE 4 6 2 3 - - 0.0
28/02:00am 8.8 6.2 3.0 67 2.6 SE 6 6 3 3 - - 0.0
28/01:30am 9.0 6.0 1.9 61 3.1 SE 7 7 4 4 - - 0.0
28/01:00am 9.4 6.6 2.9 64 2.9 SE 7 7 4 4 - - 0.0
28/12:30am 8.8 5.3 3.4 69 2.4 SSE 11 15 6 8 - - 0.0
28/12:00am 8.9 6.5 5.1 77 1.8 SE 7 9 4 5 - - 0.0
 
Date/Time
EST
Temp
°C
App
Temp
°C
Dew
Point
Rel
Hum
%
Delta-T
°C
Wind Press
QNH
hPa
Press
MSL
hPa
Rain
since 9 am
mm
Dir
 
Spd
km/h
Gust
km/h
Spd
kts
Gust
kts
27/11:30pm 8.9 6.4 4.9 76 1.9 ESE 7 11 4 6 - - 0.0
27/11:00pm 9.6 6.0 4.8 72 2.2 ESE 13 20 7 11 - - 0.0
27/10:30pm 10.1 5.9 5.5 73 2.2 ESE 17 28 9 15 - - 0.0
27/10:00pm 9.8 6.9 6.3 79 1.7 ESE 11 19 6 10 - - 0.0
27/09:30pm 10.6 6.0 6.6 76 2.0 ESE 20 26 11 14 - - 0.0
27/09:00pm 11.1 6.4 6.0 71 2.5 SE 20 30 11 16 - - 0.0
27/08:30pm 11.5 7.7 5.6 67 2.8 ESE 15 22 8 12 - - 0.0
27/08:00pm 11.7 9.1 6.2 69 2.7 SE 9 15 5 8 - - 0.0
27/07:30pm 12.1 8.8 6.2 67 2.9 E 13 22 7 12 - - 0.0
27/07:00pm 12.6 9.3 6.2 65 3.1 S 13 20 7 11 - - 0.0
27/06:30pm 12.7 8.4 7.2 69 2.8 SW 19 22 10 12 - - 0.0
27/06:00pm 13.0 8.9 7.9 71 2.6 SW 19 24 10 13 - - 0.0
27/05:30pm 14.2 10.6 8.4 68 3.0 WSW 17 24 9 13 - - 0.0
27/05:00pm 15.3 11.7 8.5 64 3.6 WSW 17 28 9 15 - - 0.0
27/04:30pm 16.1 12.9 8.3 60 4.1 WSW 15 24 8 13 - - 0.0

Other Formats:

Comma delimited format used in spreadsheet applications
http://www.bom.gov.au/fwo/IDV60801/IDV60801.94881.axf

JavaScript Object Notation format (JSON) in row-major order
http://www.bom.gov.au/fwo/IDV60801/IDV60801.94881.json